createdAt,value
2018-05-09T00:00:02.542Z,0
2018-05-09T00:05:02.466Z,0
2018-05-09T00:10:03.117Z,0
2018-05-09T00:20:03.305Z,0
2018-05-09T00:25:02.824Z,0
2018-05-09T00:30:03.359Z,0
2018-05-09T00:35:02.898Z,0
2018-05-09T00:40:02.549Z,0
2018-05-09T00:45:03.086Z,0
2018-05-09T00:50:02.740Z,0
2018-05-09T00:55:02.509Z,0
2018-05-09T01:00:03.088Z,0
2018-05-09T01:05:02.643Z,0
2018-05-09T01:10:03.251Z,0
2018-05-09T01:15:02.753Z,0
2018-05-09T01:20:03.308Z,0
2018-05-09T01:25:02.892Z,0
2018-05-09T01:30:03.448Z,0
2018-05-09T01:35:03.037Z,0
2018-05-09T01:40:02.613Z,0
2018-05-09T01:45:03.454Z,0
2018-05-09T01:50:03.002Z,0
2018-05-09T01:55:03.054Z,0
2018-05-09T02:00:03.345Z,0
2018-05-09T02:05:02.908Z,0
2018-05-09T02:10:02.451Z,0
2018-05-09T02:15:02.962Z,0
2018-05-09T02:20:02.558Z,0
2018-05-09T02:25:03.141Z,0
2018-05-09T02:30:02.739Z,0
2018-05-09T02:35:03.357Z,0
2018-05-09T02:40:02.930Z,0
2018-05-09T02:45:02.645Z,0
2018-05-09T02:50:03.451Z,0
2018-05-09T02:55:03.128Z,0
2018-05-09T03:00:02.769Z,0
2018-05-09T03:05:03.281Z,0
2018-05-09T03:10:02.836Z,1
2018-05-09T03:15:03.562Z,2
2018-05-09T03:20:03.154Z,6
2018-05-09T03:25:02.684Z,12
2018-05-09T03:30:03.259Z,26
2018-05-09T03:35:02.784Z,37
2018-05-09T03:40:03.314Z,50
2018-05-09T03:45:02.854Z,62
2018-05-09T03:55:03.041Z,132
2018-05-09T04:00:02.719Z,253
2018-05-09T04:05:03.258Z,332
2018-05-09T04:10:02.810Z,421
2018-05-09T04:15:03.362Z,509
2018-05-09T04:20:02.894Z,597
2018-05-09T04:25:02.477Z,684
2018-05-09T04:30:03.035Z,746
2018-05-09T04:35:02.725Z,845
2018-05-09T04:40:03.300Z,945
2018-05-09T04:45:02.894Z,1000
2018-05-09T04:50:02.438Z,1000
2018-05-09T04:55:02.959Z,1000
2018-05-09T05:00:03.455Z,1000
2018-05-09T05:05:03.031Z,1000
2018-05-09T05:10:02.605Z,1000
2018-05-09T05:15:03.161Z,1000
2018-05-09T05:20:02.740Z,1000
2018-05-09T05:25:03.264Z,1000
2018-05-09T05:30:02.764Z,1000
2018-05-09T05:35:03.281Z,1000
2018-05-09T05:40:02.835Z,1000
2018-05-09T05:45:03.536Z,1000
2018-05-09T05:50:02.820Z,1000
2018-05-09T05:55:03.397Z,2000
2018-05-09T06:00:03.023Z,2000
2018-05-09T06:05:02.602Z,2000
2018-05-09T06:10:03.233Z,2000
2018-05-09T06:15:02.789Z,2000
2018-05-09T06:20:03.296Z,2000
2018-05-09T06:25:02.799Z,2000
2018-05-09T06:30:03.528Z,2000
2018-05-09T06:35:03.037Z,2000
2018-05-09T06:40:02.666Z,2000
2018-05-09T06:45:03.356Z,2000
2018-05-09T06:50:03.111Z,2000
2018-05-09T06:55:03.254Z,2000
2018-05-09T07:00:03.008Z,3000
2018-05-09T07:05:03.258Z,3000
2018-05-09T07:10:02.822Z,3000
2018-05-09T07:15:03.358Z,3000
2018-05-09T07:20:02.881Z,3000
2018-05-09T07:25:02.547Z,3000
2018-05-09T07:30:03.386Z,3000
2018-05-09T07:35:02.904Z,3000
2018-05-09T07:40:02.509Z,4000
2018-05-09T07:45:03.076Z,4000
2018-05-09T07:50:02.693Z,4000
2018-05-09T07:55:03.241Z,4000
2018-05-09T08:00:02.815Z,12000
2018-05-09T08:05:02.512Z,5000
2018-05-09T08:10:03.140Z,15000
2018-05-09T08:15:02.699Z,30000
2018-05-09T08:20:03.351Z,40000
2018-05-09T08:25:02.861Z,42000
2018-05-09T08:30:03.399Z,43000
2018-05-09T08:35:02.953Z,44000
2018-05-09T08:40:02.513Z,45000
2018-05-09T08:45:03.197Z,47000
2018-05-09T08:50:02.814Z,47000
2018-05-09T08:55:03.646Z,48000
2018-05-09T09:00:03.200Z,49000
2018-05-09T09:05:02.819Z,49000
2018-05-09T09:10:03.435Z,49000
2018-05-09T09:15:03.088Z,50000
2018-05-09T09:20:02.725Z,50000
2018-05-09T09:25:03.517Z,50000
2018-05-09T09:30:03.058Z,50000
2018-05-09T09:35:02.613Z,50000
2018-05-09T09:40:03.236Z,50000
2018-05-09T09:45:02.872Z,49000
2018-05-09T09:50:02.464Z,50000
2018-05-09T09:55:02.983Z,50000
2018-05-09T10:00:02.624Z,49000
2018-05-09T10:05:03.312Z,49000
2018-05-09T10:10:03.094Z,49000
2018-05-09T10:15:02.648Z,49000
2018-05-09T10:20:03.194Z,49000
2018-05-09T10:25:02.721Z,48000
2018-05-09T10:30:03.374Z,49000
2018-05-09T10:35:02.928Z,49000
2018-05-09T10:40:02.517Z,49000
2018-05-09T10:45:03.127Z,49000
2018-05-09T10:50:02.731Z,49000
2018-05-09T10:55:03.343Z,49000
2018-05-09T11:00:03.072Z,48000
2018-05-09T11:05:02.850Z,49000
2018-05-09T11:10:02.706Z,48000
2018-05-09T11:15:03.305Z,48000
2018-05-09T11:20:02.882Z,48000
2018-05-09T11:25:02.504Z,48000
2018-05-09T11:30:03.080Z,48000
2018-05-09T11:35:02.699Z,48000
2018-05-09T11:40:03.312Z,48000
2018-05-09T11:45:02.903Z,47000
2018-05-09T11:50:03.439Z,47000
2018-05-09T11:55:02.964Z,43000
2018-05-09T12:00:02.539Z,47000
2018-05-09T12:05:03.118Z,46000
2018-05-09T12:10:02.756Z,46000
2018-05-09T12:15:03.429Z,45000
2018-05-09T12:20:02.995Z,45000
2018-05-09T12:25:02.610Z,46000
2018-05-09T12:30:03.218Z,45000
2018-05-09T12:35:02.920Z,46000
2018-05-09T12:40:02.534Z,46000
2018-05-09T12:45:03.174Z,44000
2018-05-09T12:50:02.802Z,47000
2018-05-09T12:55:03.383Z,21000
2018-05-09T13:00:02.900Z,31000
2018-05-09T13:05:02.481Z,10000
2018-05-09T13:10:03.164Z,9000
2018-05-09T13:15:02.676Z,41000
2018-05-09T13:20:03.255Z,19000
2018-05-09T13:25:02.812Z,35000
2018-05-09T13:30:03.326Z,12000
2018-05-09T13:35:02.869Z,35000
2018-05-09T13:40:02.847Z,34000
2018-05-09T13:45:02.724Z,34000
2018-05-09T13:50:03.360Z,12000
2018-05-09T13:55:02.967Z,31000
2018-05-09T14:00:02.602Z,30000
2018-05-09T14:05:03.407Z,8000
2018-05-09T14:10:03.060Z,8000
2018-05-09T14:15:02.655Z,9000
2018-05-09T14:20:03.242Z,8000
2018-05-09T14:25:02.825Z,26000
2018-05-09T14:30:03.371Z,26000
2018-05-09T14:35:02.984Z,26000
2018-05-09T14:40:02.683Z,25000
2018-05-09T14:45:03.322Z,25000
2018-05-09T14:50:02.924Z,24000
2018-05-09T14:55:02.516Z,24000
2018-05-09T15:00:03.048Z,23000
2018-05-09T15:05:02.645Z,23000
2018-05-09T15:10:03.270Z,20000
2018-05-09T15:15:02.761Z,20000
2018-05-09T15:20:02.452Z,11000
2018-05-09T15:25:03.089Z,7000
2018-05-09T15:30:02.626Z,19000
2018-05-09T15:35:03.259Z,19000
2018-05-09T15:40:02.931Z,18000
2018-05-09T15:45:02.553Z,17000
2018-05-09T15:50:03.380Z,17000
2018-05-09T15:55:02.978Z,18000
2018-05-09T16:00:02.608Z,17000
2018-05-09T16:05:03.336Z,15000
2018-05-09T16:10:02.976Z,13000
2018-05-09T16:15:02.522Z,4000
2018-05-09T16:20:03.132Z,4000
2018-05-09T16:25:02.747Z,4000
2018-05-09T16:30:03.315Z,4000
2018-05-09T16:35:02.829Z,3000
2018-05-09T16:40:03.453Z,3000
2018-05-09T16:45:03.044Z,2000
2018-05-09T16:50:02.651Z,2000
2018-05-09T16:55:03.412Z,1000
2018-05-09T17:00:02.977Z,1000
2018-05-09T17:05:02.575Z,1000
2018-05-09T17:10:03.187Z,1000
2018-05-09T17:15:02.742Z,989
2018-05-09T17:20:03.449Z,968
2018-05-09T17:25:03.071Z,930
2018-05-09T17:30:02.862Z,931
2018-05-09T17:35:03.586Z,955
2018-05-09T17:40:03.246Z,913
2018-05-09T17:45:02.876Z,848
2018-05-09T17:50:03.467Z,805
2018-05-09T17:55:02.999Z,761
2018-05-09T18:00:02.532Z,762
2018-05-09T18:05:03.134Z,718
2018-05-09T18:10:02.726Z,653
2018-05-09T18:15:03.318Z,604
2018-05-09T18:20:02.875Z,537
2018-05-09T18:25:03.595Z,537
2018-05-09T18:30:03.227Z,358
2018-05-09T18:35:02.803Z,300
2018-05-09T18:40:03.509Z,259
2018-05-09T18:45:03.289Z,128
2018-05-09T18:50:02.890Z,137
2018-05-09T18:55:02.504Z,66
2018-05-09T19:00:03.099Z,56
2018-05-09T19:05:02.853Z,52
2018-05-09T19:10:02.610Z,44
2018-05-09T19:15:03.191Z,35
2018-05-09T19:20:02.848Z,26
2018-05-09T19:25:03.389Z,15
2018-05-09T19:30:03.336Z,10
2018-05-09T19:35:02.923Z,5
2018-05-09T19:40:02.583Z,2
2018-05-09T19:45:03.087Z,1
2018-05-09T19:50:02.631Z,0
2018-05-09T19:55:03.265Z,0
2018-05-09T20:00:03.239Z,0
2018-05-09T20:05:02.836Z,0
2018-05-09T20:10:02.520Z,0
2018-05-09T20:15:03.082Z,0
2018-05-09T20:20:02.588Z,0
2018-05-09T20:25:03.156Z,0
2018-05-09T20:30:02.705Z,0
2018-05-09T20:35:03.258Z,0
2018-05-09T20:40:02.894Z,0
2018-05-09T20:45:02.495Z,0
2018-05-09T20:50:03.027Z,0
2018-05-09T20:55:02.614Z,0
2018-05-09T21:00:03.235Z,0
2018-05-09T21:05:02.841Z,0
2018-05-09T21:10:02.460Z,0
2018-05-09T21:15:02.939Z,0
2018-05-09T21:20:02.697Z,0
2018-05-09T21:25:02.453Z,0
2018-05-09T21:30:03.014Z,0
2018-05-09T21:35:02.524Z,0
2018-05-09T21:40:03.145Z,0
2018-05-09T21:45:02.683Z,0
2018-05-09T21:50:03.122Z,0
2018-05-09T21:55:02.658Z,0
2018-05-09T22:00:03.300Z,0
2018-05-09T22:05:02.902Z,0
2018-05-09T22:10:02.538Z,0
2018-05-09T22:15:03.163Z,0
2018-05-09T22:20:02.680Z,0
2018-05-09T22:25:03.199Z,0
2018-05-09T22:30:02.722Z,0
2018-05-09T22:35:03.245Z,0
2018-05-09T22:40:02.795Z,0
2018-05-09T22:45:03.375Z,0
2018-05-09T22:50:02.891Z,0
2018-05-09T22:55:03.560Z,0
2018-05-09T23:00:04.964Z,0
2018-05-09T23:05:02.805Z,0
2018-05-09T23:10:03.003Z,0
2018-05-09T23:15:02.481Z,0
2018-05-09T23:20:03.082Z,0
2018-05-09T23:25:02.713Z,0
2018-05-09T23:30:03.297Z,0
2018-05-09T23:35:02.891Z,0
2018-05-09T23:40:03.448Z,0
2018-05-09T23:45:03.036Z,0
2018-05-09T23:50:02.619Z,0
2018-05-09T23:55:03.181Z,0
